createdAt,value
2018-04-12T05:39:52.748Z,21.8
2018-04-12T05:40:43.116Z,21.8
2018-04-12T05:41:33.380Z,21.8
2018-04-12T05:42:23.275Z,21.8
2018-04-12T05:43:12.151Z,21.8
2018-04-12T05:44:02.486Z,21.8
2018-04-12T05:44:52.805Z,21.8
2018-04-12T05:45:43.243Z,21.8
2018-04-12T05:46:34.740Z,21.8
2018-04-12T05:47:24.109Z,21.8
2018-04-12T05:48:13.278Z,21.8
2018-04-12T05:49:04.209Z,21.8
2018-04-12T05:49:53.735Z,21.8
2018-04-12T05:50:43.236Z,21.8
2018-04-12T05:51:33.885Z,21.8
2018-04-12T05:52:23.336Z,21.8
2018-04-12T05:53:12.848Z,21.8
2018-04-12T05:54:03.469Z,21.8
2018-04-12T05:54:54.713Z,21.8
2018-04-12T05:55:43.665Z,21.8
2018-04-12T05:56:33.947Z,21.8
2018-04-12T05:57:24.641Z,21.8
2018-04-12T05:58:14.375Z,21.8
2018-04-12T05:59:04.048Z,21.8
2018-04-12T05:59:54.484Z,21.8
2018-04-12T06:00:44.292Z,21.7
2018-04-12T06:01:34.366Z,21.7
2018-04-12T06:02:25.282Z,21.7
2018-04-12T06:03:15.149Z,21.8
2018-04-12T06:04:05.051Z,21.7
2018-04-12T06:04:54.549Z,21.8
2018-04-12T06:05:44.654Z,21.8
2018-04-12T06:06:35.253Z,21.7
2018-04-12T06:07:25.737Z,21.7
2018-04-12T06:08:14.874Z,21.8
2018-04-12T06:09:04.870Z,21.8
2018-04-12T06:09:55.761Z,21.8
2018-04-12T06:10:45.296Z,21.8
2018-04-12T06:11:34.777Z,21.8
2018-04-12T06:12:25.717Z,21.8
2018-04-12T06:13:15.773Z,21.8
2018-04-12T06:14:05.891Z,21.8
2018-04-12T06:14:55.864Z,21.8
2018-04-12T06:15:45.094Z,21.8
2018-04-12T06:16:35.687Z,21.8
2018-04-12T06:17:26.630Z,21.8
2018-04-12T06:18:16.414Z,21.8
2018-04-12T06:19:06.197Z,21.8
2018-04-12T06:19:55.785Z,21.8
2018-04-12T06:20:46.107Z,21.8
2018-04-12T06:21:36.834Z,21.8
2018-04-12T06:22:26.687Z,21.8
2018-04-12T06:23:16.480Z,21.8
2018-04-12T06:24:06.267Z,21.8
2018-04-12T06:24:56.596Z,21.8
2018-04-12T06:25:46.671Z,21.8
2018-04-12T06:26:36.759Z,21.8
2018-04-12T06:27:27.377Z,21.8
2018-04-12T06:28:16.649Z,21.8
2018-04-12T06:29:06.670Z,21.8
2018-04-12T06:29:56.435Z,21.8
2018-04-12T06:30:47.103Z,21.8
2018-04-12T06:31:37.157Z,21.8
2018-04-12T06:32:27.231Z,21.8
2018-04-12T06:33:16.146Z,21.8
2018-04-12T06:34:07.376Z,21.8
2018-04-12T06:34:57.741Z,21.8
2018-04-12T06:35:46.921Z,21.8
2018-04-12T06:36:37.517Z,21.8
2018-04-12T06:37:26.781Z,21.8
2018-04-12T06:38:17.519Z,21.8
2018-04-12T06:39:06.548Z,21.8
2018-04-12T06:39:58.353Z,21.8
2018-04-12T06:40:47.018Z,21.8
2018-04-12T06:41:38.465Z,21.8
2018-04-12T06:42:26.580Z,21.8
2018-04-12T06:43:16.926Z,21.8
2018-04-12T06:44:08.086Z,21.8
2018-04-12T06:44:57.666Z,21.8
2018-04-12T06:45:47.049Z,21.8
2018-04-12T06:46:38.553Z,21.8
2018-04-12T06:47:27.770Z,21.8
2018-04-12T06:48:17.881Z,21.8
2018-04-12T06:49:08.166Z,21.8
2018-04-12T06:49:58.536Z,21.8
2018-04-12T06:50:48.909Z,21.8
2018-04-12T06:51:38.635Z,21.8
2018-04-12T06:52:28.716Z,21.8
2018-04-12T06:53:17.906Z,21.8
2018-04-12T06:54:09.749Z,21.8
2018-04-12T06:54:58.315Z,21.8
2018-04-12T06:55:48.171Z,21.8
2018-04-12T06:56:37.916Z,21.9
2018-04-12T06:57:28.241Z,21.8
2018-04-12T06:58:19.397Z,21.8
2018-04-12T06:59:09.238Z,21.8
2018-04-12T06:59:59.248Z,21.8
2018-04-12T07:00:49.637Z,21.8
2018-04-12T07:01:38.535Z,21.8
2018-04-12T07:02:28.362Z,21.8
2018-04-12T07:03:19.238Z,21.8
2018-04-12T07:04:10.172Z,21.8
2018-04-12T07:04:59.370Z,21.8
2018-04-12T07:05:50.009Z,21.8
2018-04-12T07:06:39.784Z,21.8
2018-04-12T07:07:29.864Z,21.8
2018-04-12T07:08:20.181Z,21.8
2018-04-12T07:09:09.932Z,21.9
2018-04-12T07:10:00.026Z,21.8
2018-04-12T07:10:50.469Z,21.8
2018-04-12T07:11:39.989Z,21.8
2018-04-12T07:12:30.585Z,21.8
2018-04-12T07:13:19.198Z,21.8
2018-04-12T07:14:10.070Z,21.8
2018-04-12T07:15:00.186Z,21.8
2018-04-12T07:15:49.944Z,21.8
2018-04-12T07:16:40.807Z,21.8
2018-04-12T07:17:30.131Z,21.8
2018-04-12T07:18:19.995Z,21.8
2018-04-12T07:19:10.022Z,21.8
2018-04-12T07:20:00.543Z,21.8
2018-04-12T07:20:50.288Z,21.8
2018-04-12T07:21:39.540Z,21.8
2018-04-12T07:22:30.246Z,21.8
2018-04-12T07:23:20.538Z,21.8
2018-04-12T07:24:10.841Z,21.8
2018-04-12T07:24:59.063Z,21.8
2018-04-12T07:25:50.930Z,21.8
2018-04-12T07:26:41.279Z,21.8
2018-04-12T07:27:30.197Z,21.8
2018-04-12T07:28:21.437Z,21.8
2018-04-12T07:29:11.218Z,21.8
2018-04-12T07:30:01.837Z,21.8
2018-04-12T07:30:51.597Z,21.8
2018-04-12T07:31:41.644Z,21.8
2018-04-12T07:32:31.740Z,21.8
2018-04-12T07:33:22.075Z,21.8
2018-04-12T07:34:11.859Z,21.8
2018-04-12T07:35:01.755Z,21.8
2018-04-12T07:35:52.297Z,21.8
2018-04-12T07:36:42.364Z,21.8
2018-04-12T07:37:30.834Z,21.8
2018-04-12T07:38:21.371Z,21.8
2018-04-12T07:39:11.746Z,21.8
2018-04-12T07:40:02.640Z,21.8
2018-04-12T07:40:52.106Z,21.8
2018-04-12T07:41:41.954Z,21.8
2018-04-12T07:42:32.279Z,21.8
2018-04-12T07:43:22.349Z,21.8
2018-04-12T07:44:12.407Z,21.8
2018-04-12T07:45:03.278Z,21.8
2018-04-12T07:45:51.681Z,21.8
2018-04-12T07:46:42.596Z,21.8
2018-04-12T07:47:32.346Z,21.8
2018-04-12T07:48:22.954Z,21.8
2018-04-12T07:49:13.336Z,21.8
2018-04-12T07:50:03.113Z,21.8
2018-04-12T07:50:50.993Z,21.8
2018-04-12T07:51:41.620Z,21.8
2018-04-12T07:52:33.052Z,21.8
2018-04-12T07:53:22.829Z,21.8
2018-04-12T07:54:12.627Z,21.8
2018-04-12T07:55:02.210Z,21.8
2018-04-12T07:55:53.623Z,21.8
2018-04-12T07:56:43.749Z,21.8
2018-04-12T07:57:33.922Z,21.8
2018-04-12T07:58:23.879Z,21.8
2018-04-12T07:59:13.265Z,21.8
2018-04-12T08:00:03.654Z,21.8
2018-04-12T08:00:53.933Z,21.8
2018-04-12T08:01:43.744Z,21.8
2018-04-12T08:02:34.406Z,21.8
2018-04-12T08:03:23.845Z,21.8
2018-04-12T08:04:12.831Z,21.8
2018-04-12T08:05:04.290Z,21.8
2018-04-12T08:05:54.466Z,21.8
2018-04-12T08:06:44.114Z,21.8
2018-04-12T08:07:33.892Z,21.8
2018-04-12T08:08:24.536Z,21.8
2018-04-12T08:09:13.869Z,21.8
2018-04-12T08:10:04.362Z,21.8
2018-04-12T08:10:54.714Z,21.8
2018-04-12T08:11:45.082Z,21.8
2018-04-12T08:12:34.636Z,21.8
2018-04-12T08:13:24.636Z,21.8
2018-04-12T08:14:15.478Z,21.8
2018-04-12T08:15:05.292Z,21.8
2018-04-12T08:15:55.344Z,21.8
2018-04-12T08:16:45.119Z,21.8
2018-04-12T08:17:35.745Z,21.8
2018-04-12T08:18:25.495Z,21.8
2018-04-12T08:19:15.051Z,21.8
2018-04-12T08:20:05.439Z,21.8
2018-04-12T08:20:54.943Z,21.8
2018-04-12T08:21:44.493Z,21.8
2018-04-12T08:22:35.075Z,21.8
2018-04-12T08:23:25.695Z,21.8
2018-04-12T08:24:15.413Z,21.8
2018-04-12T08:25:05.874Z,21.8
2018-04-12T08:25:55.590Z,21.8
2018-04-12T08:26:45.741Z,21.8
2018-04-12T08:27:36.077Z,21.8
2018-04-12T08:28:24.996Z,21.8
2018-04-12T08:29:15.830Z,21.8
2018-04-12T08:30:06.175Z,21.8
2018-04-12T08:30:56.231Z,21.8
2018-04-12T08:31:46.558Z,21.8
2018-04-12T08:32:36.103Z,21.8
2018-04-12T08:33:26.460Z,21.8
2018-04-12T08:34:15.939Z,21.8
2018-04-12T08:35:06.240Z,21.8
2018-04-12T08:35:56.892Z,21.8
2018-04-12T08:36:46.423Z,21.8
2018-04-12T08:37:36.522Z,21.8
2018-04-12T08:38:25.995Z,21.8
2018-04-12T08:39:17.172Z,21.8
2018-04-12T08:40:07.279Z,21.8
2018-04-12T08:40:56.743Z,21.8
2018-04-12T08:41:46.591Z,21.8
2018-04-12T08:42:37.210Z,21.8
2018-04-12T08:43:26.956Z,21.8
2018-04-12T08:44:17.020Z,21.8
2018-04-12T08:45:07.117Z,21.8
2018-04-12T08:45:57.446Z,21.8
2018-04-12T08:46:46.892Z,21.8
2018-04-12T08:47:36.763Z,21.8
2018-04-12T08:48:27.892Z,21.8
2018-04-12T08:49:17.702Z,21.8
2018-04-12T08:50:08.043Z,21.8
2018-04-12T08:50:57.500Z,21.8
2018-04-12T08:51:47.016Z,21.8
2018-04-12T08:52:37.769Z,21.8
2018-04-12T08:53:26.962Z,21.8
2018-04-12T08:54:18.035Z,21.8
2018-04-12T08:55:08.126Z,21.8
2018-04-12T08:55:58.720Z,21.8
2018-04-12T08:56:47.721Z,21.8
2018-04-12T08:57:37.494Z,21.8
2018-04-12T08:58:28.348Z,21.8
2018-04-12T08:59:18.146Z,21.8
2018-04-12T09:00:08.082Z,21.8
2018-04-12T09:00:58.308Z,21.8
2018-04-12T09:01:47.773Z,21.8
2018-04-12T09:02:38.473Z,21.8
2018-04-12T09:03:28.789Z,21.8
2018-04-12T09:04:18.286Z,21.8
2018-04-12T09:05:09.510Z,21.8
2018-04-12T09:05:58.798Z,21.8
2018-04-12T09:06:49.530Z,21.8
2018-04-12T09:07:39.423Z,21.8
2018-04-12T09:08:28.936Z,21.8
2018-04-12T09:09:18.941Z,21.8
2018-04-12T09:10:09.031Z,21.8
2018-04-12T09:10:58.236Z,21.8
2018-04-12T09:11:49.426Z,21.8
2018-04-12T09:12:39.238Z,21.8
2018-04-12T09:13:29.606Z,21.8
2018-04-12T09:14:19.917Z,21.8
2018-04-12T09:15:09.708Z,21.8
2018-04-12T09:15:59.240Z,21.8
2018-04-12T09:16:48.977Z,21.8
2018-04-12T09:17:39.621Z,21.8
2018-04-12T09:18:30.547Z,21.8
2018-04-12T09:19:19.567Z,21.8
2018-04-12T09:20:09.537Z,21.8
2018-04-12T09:21:00.461Z,21.8
2018-04-12T09:21:49.620Z,21.8
2018-04-12T09:22:40.375Z,21.8
2018-04-12T09:23:30.537Z,21.8
2018-04-12T09:24:20.694Z,21.8
2018-04-12T09:25:10.171Z,21.8
2018-04-12T09:26:00.284Z,21.8
2018-04-12T09:26:50.265Z,21.8
2018-04-12T09:27:40.501Z,21.8
2018-04-12T09:28:30.716Z,21.8
2018-04-12T09:29:20.577Z,21.8
2018-04-12T09:30:10.255Z,21.8
2018-04-12T09:31:00.627Z,21.8
2018-04-12T09:31:50.159Z,21.8
2018-04-12T09:32:40.717Z,21.8
2018-04-12T09:33:30.426Z,21.8
2018-04-12T09:34:21.176Z,21.8
2018-04-12T09:35:11.391Z,21.8
2018-04-12T09:35:59.882Z,21.7
2018-04-12T09:36:51.105Z,21.7
2018-04-12T09:37:40.861Z,21.7
2018-04-12T09:38:31.768Z,21.7
2018-04-12T09:39:20.476Z,21.7
2018-04-12T09:40:10.864Z,21.7
2018-04-12T09:41:01.149Z,21.7
2018-04-12T09:41:51.486Z,21.8
2018-04-12T09:42:40.749Z,21.7
2018-04-12T09:43:32.149Z,21.7
2018-04-12T09:44:21.994Z,21.8
2018-04-12T09:45:12.585Z,21.8
2018-04-12T09:46:01.544Z,21.7
2018-04-12T09:46:51.863Z,21.7
2018-04-12T09:47:41.636Z,21.8
2018-04-12T09:48:31.433Z,21.7
2018-04-12T09:49:21.986Z,21.8
2018-04-12T09:50:12.682Z,21.8
2018-04-12T09:51:02.496Z,21.8
2018-04-12T09:51:52.513Z,21.8
2018-04-12T09:52:42.344Z,21.7
2018-04-12T09:53:32.940Z,21.8
2018-04-12T09:54:22.438Z,21.8
2018-04-12T09:55:12.836Z,21.8
2018-04-12T09:56:03.106Z,21.8
2018-04-12T09:56:52.902Z,21.8
2018-04-12T09:57:43.285Z,21.8
2018-04-12T09:58:32.769Z,21.8
2018-04-12T09:59:23.429Z,21.8
2018-04-12T10:00:14.359Z,21.8
2018-04-12T10:01:03.561Z,21.8
2018-04-12T10:01:52.441Z,21.8
2018-04-12T10:02:42.859Z,21.8
2018-04-12T10:03:33.156Z,21.8
2018-04-12T10:04:24.089Z,21.8
2018-04-12T10:05:13.054Z,21.8
2018-04-12T10:06:03.073Z,21.8
2018-04-12T10:06:54.013Z,21.8
2018-04-12T10:07:43.247Z,21.8
2018-04-12T10:08:33.893Z,21.8
2018-04-12T10:09:23.318Z,21.8
2018-04-12T10:10:14.239Z,21.8
2018-04-12T10:11:04.046Z,21.8
2018-04-12T10:11:53.538Z,21.8
2018-04-12T10:12:43.633Z,21.8
2018-04-12T10:13:34.863Z,21.8
2018-04-12T10:14:22.994Z,21.8
2018-04-12T10:15:14.855Z,21.8
2018-04-12T10:16:04.430Z,21.8
2018-04-12T10:16:54.187Z,21.8
2018-04-12T10:17:44.556Z,21.8
2018-04-12T10:18:34.379Z,21.8
2018-04-12T10:19:24.370Z,21.8
2018-04-12T10:20:14.707Z,21.8
2018-04-12T10:21:04.832Z,21.8
2018-04-12T10:21:55.173Z,21.8
2018-04-12T10:22:45.212Z,21.8
2018-04-12T10:23:34.795Z,21.8
2018-04-12T10:24:25.374Z,21.8
2018-04-12T10:25:15.115Z,21.8
2018-04-12T10:26:05.496Z,21.8
2018-04-12T10:26:55.247Z,21.8
2018-04-12T10:27:44.232Z,21.8
2018-04-12T10:28:35.177Z,21.8
2018-04-12T10:29:26.037Z,21.8
2018-04-12T10:30:15.262Z,21.8
2018-04-12T10:31:05.310Z,21.8
2018-04-12T10:31:55.099Z,21.8
2018-04-12T10:32:45.579Z,21.8
2018-04-12T10:33:35.510Z,21.8
2018-04-12T10:34:25.289Z,21.8
2018-04-12T10:35:15.695Z,21.8
2018-04-12T10:36:05.705Z,21.8
2018-04-12T10:36:55.453Z,21.8
2018-04-12T10:37:45.542Z,21.8
2018-04-12T10:38:36.482Z,21.8
2018-04-12T10:39:26.604Z,21.8
2018-04-12T10:40:16.007Z,21.8
2018-04-12T10:41:06.130Z,21.8
2018-04-12T10:41:56.643Z,21.8
2018-04-12T10:42:45.369Z,21.8
2018-04-12T10:43:35.741Z,21.8
2018-04-12T10:44:26.969Z,21.8
2018-04-12T10:45:16.999Z,21.8
2018-04-12T10:46:06.782Z,21.8
2018-04-12T10:46:56.663Z,21.8
2018-04-12T10:47:46.654Z,21.8
2018-04-12T10:48:36.924Z,21.8
2018-04-12T10:49:27.070Z,21.8
2018-04-12T10:50:16.524Z,21.8
2018-04-12T10:51:07.161Z,21.8
2018-04-12T10:51:57.233Z,21.8
2018-04-12T10:52:47.023Z,21.8
2018-04-12T10:53:37.377Z,21.8
2018-04-12T10:54:27.705Z,21.8
2018-04-12T10:55:16.933Z,21.8
2018-04-12T10:56:06.693Z,21.8
2018-04-12T10:56:57.313Z,21.8
2018-04-12T10:57:48.312Z,21.8
2018-04-12T10:58:37.755Z,21.8
2018-04-12T10:59:28.002Z,21.8
2018-04-12T11:00:18.198Z,21.8
2018-04-12T11:01:08.184Z,21.8
2018-04-12T11:01:58.023Z,21.9
2018-04-12T11:02:48.324Z,21.8
2018-04-12T11:03:38.426Z,21.9
2018-04-12T11:04:27.919Z,21.8
2018-04-12T11:05:17.439Z,21.8
2018-04-12T11:06:07.222Z,21.8
2018-04-12T11:06:57.816Z,21.9
2018-04-12T11:07:47.664Z,21.9
2018-04-12T11:08:38.012Z,21.9
2018-04-12T11:09:27.154Z,21.9
2018-04-12T11:10:17.844Z,21.9
2018-04-12T11:11:08.741Z,21.9
2018-04-12T11:11:58.563Z,21.9
2018-04-12T11:12:48.056Z,21.9
2018-04-12T11:13:38.972Z,21.9
2018-04-12T11:14:28.422Z,21.9
2018-04-12T11:15:17.929Z,21.9
2018-04-12T11:16:09.159Z,21.9
2018-04-12T11:16:58.381Z,21.9
2018-04-12T11:17:49.606Z,21.9
2018-04-12T11:18:40.919Z,21.9
2018-04-12T11:19:29.361Z,21.9
2018-04-12T11:20:19.685Z,21.9
2018-04-12T11:21:10.031Z,21.9
2018-04-12T11:21:59.593Z,21.9
2018-04-12T11:22:49.949Z,21.9
2018-04-12T11:23:39.634Z,21.9
2018-04-12T11:24:30.555Z,21.9
2018-04-12T11:25:20.684Z,21.9
2018-04-12T11:26:09.347Z,21.9
2018-04-12T11:26:59.218Z,21.9
2018-04-12T11:27:50.354Z,21.9
2018-04-12T11:28:40.058Z,21.9
2018-04-12T11:29:30.230Z,21.9
2018-04-12T11:30:20.310Z,21.9
2018-04-12T11:31:10.285Z,21.9
2018-04-12T11:32:00.335Z,21.9
2018-04-12T11:32:49.904Z,21.9
2018-04-12T11:33:39.322Z,21.9
2018-04-12T11:34:30.999Z,21.9
2018-04-12T11:35:20.770Z,21.9
2018-04-12T11:36:10.476Z,21.9
2018-04-12T11:37:00.460Z,21.9
2018-04-12T11:37:50.541Z,21.9
2018-04-12T11:38:40.949Z,21.9
2018-04-12T11:39:30.271Z,21.9
2018-04-12T11:40:20.681Z,21.9
2018-04-12T11:41:10.803Z,21.9
2018-04-12T11:42:00.276Z,21.9
2018-04-12T11:42:51.847Z,21.9
2018-04-12T11:43:41.233Z,21.9
2018-04-12T11:44:31.031Z,21.9
2018-04-12T11:45:21.858Z,21.9
2018-04-12T11:46:10.982Z,21.9
2018-04-12T11:47:01.602Z,21.9
2018-04-12T11:47:51.803Z,21.9
2018-04-12T11:48:40.348Z,21.9
2018-04-12T11:49:31.194Z,21.9
2018-04-12T11:50:21.776Z,21.9
2018-04-12T11:51:11.252Z,21.9
2018-04-12T11:52:01.906Z,21.9
2018-04-12T11:52:51.222Z,22
2018-04-12T11:53:41.496Z,21.9
2018-04-12T11:54:31.275Z,21.9
2018-04-12T11:55:21.979Z,21.9
2018-04-12T11:56:11.565Z,21.9
2018-04-12T11:57:00.587Z,22
2018-04-12T11:57:50.990Z,21.9
2018-04-12T11:58:41.786Z,21.9
2018-04-12T11:59:30.215Z,22
2018-04-12T12:00:21.758Z,22
2018-04-12T12:01:11.199Z,21.9
2018-04-12T12:02:01.196Z,22
2018-04-12T12:02:50.705Z,22
2018-04-12T12:03:43.205Z,21.9
2018-04-12T12:04:30.713Z,21.9
2018-04-12T12:05:20.917Z,21.9
2018-04-12T12:06:13.288Z,22
2018-04-12T12:07:03.134Z,22
2018-04-12T12:07:51.828Z,22
2018-04-12T12:08:42.962Z,21.9
2018-04-12T12:09:32.795Z,22
2018-04-12T12:10:23.030Z,22
2018-04-12T12:11:12.871Z,22
2018-04-12T12:12:03.183Z,22
2018-04-12T12:12:54.115Z,22
2018-04-12T12:13:43.330Z,22
2018-04-12T12:14:33.976Z,22
2018-04-12T12:15:23.169Z,22
2018-04-12T12:16:12.954Z,22
2018-04-12T12:17:04.133Z,21.9
2018-04-12T12:17:53.841Z,21.9
2018-04-12T12:18:43.427Z,22
2018-04-12T12:19:33.214Z,22
2018-04-12T12:20:24.112Z,22
2018-04-12T12:21:13.603Z,22
2018-04-12T12:22:04.248Z,22
2018-04-12T12:22:54.328Z,22.1
2018-04-12T12:23:45.556Z,22
2018-04-12T12:24:34.143Z,22
2018-04-12T12:25:24.469Z,22
2018-04-12T12:26:14.602Z,22
2018-04-12T12:27:04.879Z,22
2018-04-12T12:27:54.380Z,22
2018-04-12T12:28:44.519Z,22
2018-04-12T12:29:35.395Z,22
2018-04-12T12:30:24.344Z,22
2018-04-12T12:31:14.652Z,22
2018-04-12T12:32:05.299Z,22
2018-04-12T12:32:54.850Z,22.1
2018-04-12T12:33:45.445Z,22
2018-04-12T12:34:35.209Z,22
2018-04-12T12:35:25.277Z,22
2018-04-12T12:36:15.361Z,22
2018-04-12T12:37:05.439Z,22.1
2018-04-12T12:37:55.231Z,22
2018-04-12T12:38:45.073Z,22
2018-04-12T12:39:35.621Z,22.1
2018-04-12T12:40:24.822Z,22
2018-04-12T12:41:14.621Z,22
2018-04-12T12:42:05.310Z,22.1
2018-04-12T12:42:55.858Z,22
2018-04-12T12:43:46.645Z,22
2018-04-12T12:44:36.089Z,22
2018-04-12T12:45:25.791Z,22
2018-04-12T12:46:16.500Z,22
2018-04-12T12:47:06.185Z,22
2018-04-12T12:47:55.950Z,22
2018-04-12T12:48:45.470Z,22.1
2018-04-12T12:49:36.936Z,22
2018-04-12T12:50:26.756Z,22
2018-04-12T12:51:16.510Z,22
2018-04-12T12:52:07.170Z,22.1
2018-04-12T12:52:56.088Z,22
2018-04-12T12:53:45.575Z,22
2018-04-12T12:54:36.789Z,22.1
2018-04-12T12:55:26.030Z,22.1
2018-04-12T12:56:17.244Z,22
2018-04-12T12:57:05.820Z,22
2018-04-12T12:57:56.750Z,22
2018-04-12T12:58:47.645Z,22.1
2018-04-12T12:59:36.901Z,22.1
2018-04-12T13:00:27.521Z,22.1
2018-04-12T13:01:17.459Z,22.1
2018-04-12T13:02:07.389Z,22
2018-04-12T13:02:57.683Z,22.1
2018-04-12T13:03:46.884Z,22
2018-04-12T13:04:37.261Z,22.1
2018-04-12T13:05:27.629Z,22.1
2018-04-12T13:06:17.748Z,22
2018-04-12T13:07:07.751Z,22.1
2018-04-12T13:07:57.551Z,22.1
2018-04-12T13:08:47.851Z,22.1
2018-04-12T13:09:37.386Z,22.1
2018-04-12T13:10:27.727Z,22.1
2018-04-12T13:11:17.258Z,22.1
2018-04-12T13:12:07.609Z,22.1
2018-04-12T13:12:57.399Z,22.1
2018-04-12T13:13:48.304Z,22.1
2018-04-12T13:14:38.063Z,22.1
2018-04-12T13:15:28.716Z,22.1
2018-04-12T13:16:19.061Z,22.1
2018-04-12T13:17:07.688Z,22.1
2018-04-12T13:17:58.896Z,22.1
2018-04-12T13:18:48.673Z,22.1
2018-04-12T13:19:37.903Z,22.1
2018-04-12T13:20:28.572Z,22.1
2018-04-12T13:21:18.907Z,22.1
2018-04-12T13:22:08.450Z,22.1
2018-04-12T13:22:58.817Z,22.1
2018-04-12T13:23:47.895Z,22.1
2018-04-12T13:24:38.027Z,22.1
2018-04-12T13:25:28.589Z,22.1
2018-04-12T13:26:19.774Z,22.1
2018-04-12T13:27:09.241Z,22.1
2018-04-12T13:27:58.816Z,22.1
2018-04-12T13:28:49.145Z,22.1
2018-04-12T13:29:39.549Z,22.1
2018-04-12T13:30:29.569Z,22.1
2018-04-12T13:31:20.156Z,22.1
2018-04-12T13:32:08.773Z,22.1
2018-04-12T13:32:59.507Z,22.1
2018-04-12T13:33:49.519Z,22.1
2018-04-12T13:34:39.266Z,22.1
2018-04-12T13:35:29.952Z,22.1
2018-04-12T13:36:20.118Z,22.1
2018-04-12T13:37:10.067Z,22.1
2018-04-12T13:37:58.774Z,22.1
2018-04-12T13:38:49.683Z,22.1
2018-04-12T13:39:40.284Z,22.1
2018-04-12T13:40:29.757Z,22.1
2018-04-12T13:41:20.117Z,22.1
2018-04-12T13:42:10.489Z,22.1
2018-04-12T13:43:00.526Z,22.1
2018-04-12T13:43:50.946Z,22.1
2018-04-12T13:44:40.692Z,22.1
2018-04-12T13:45:29.944Z,22.1
2018-04-12T13:46:21.131Z,22.1
2018-04-12T13:47:10.871Z,22.1
2018-04-12T13:47:59.848Z,22.1
2018-04-12T13:48:50.701Z,22.1
2018-04-12T13:49:41.598Z,22.1
2018-04-12T13:50:31.388Z,22.1
2018-04-12T13:51:19.391Z,22.1
2018-04-12T13:52:10.172Z,22.1
2018-04-12T13:53:00.052Z,22.1
2018-04-12T13:53:50.729Z,22.1
2018-04-12T13:54:40.335Z,22.1
2018-04-12T13:55:29.998Z,22.1
2018-04-12T13:56:20.234Z,22.1
2018-04-12T13:57:10.317Z,22.1
2018-04-12T13:58:01.104Z,22.1
2018-04-12T13:58:49.780Z,22.1
2018-04-12T13:59:40.534Z,22.2
2018-04-12T14:00:31.622Z,22.1
2018-04-12T14:01:21.209Z,22.1
2018-04-12T14:02:09.811Z,22.1
2018-04-12T14:03:00.119Z,22.2
2018-04-12T14:03:52.684Z,22.2
2018-04-12T14:04:42.044Z,22.1
2018-04-12T14:05:31.786Z,22.2
2018-04-12T14:06:22.276Z,22.2
2018-04-12T14:07:12.396Z,22.2
2018-04-12T14:08:01.938Z,22.2
2018-04-12T14:08:52.581Z,22.2
2018-04-12T14:09:42.296Z,22.2
2018-04-12T14:10:32.909Z,22.2
2018-04-12T14:11:22.151Z,22.2
2018-04-12T14:12:13.092Z,22.2
2018-04-12T14:13:01.701Z,22.2
2018-04-12T14:13:53.254Z,22.2
2018-04-12T14:14:42.386Z,22.2
2018-04-12T14:15:33.352Z,22.2
2018-04-12T14:16:22.821Z,22.2
2018-04-12T14:17:12.558Z,22.2
2018-04-12T14:18:02.999Z,22.2
2018-04-12T14:18:53.625Z,22.2
2018-04-12T14:19:43.658Z,22.2
2018-04-12T14:20:33.170Z,22.2
2018-04-12T14:21:23.252Z,22.3
2018-04-12T14:22:13.262Z,22.2
2018-04-12T14:23:03.322Z,22.2
2018-04-12T14:23:54.214Z,22.2
2018-04-12T14:24:43.734Z,22.2
2018-04-12T14:25:33.957Z,22.2
2018-04-12T14:26:23.611Z,22.3
2018-04-12T14:27:14.024Z,22.3
2018-04-12T14:28:03.989Z,22.3
2018-04-12T14:28:52.631Z,22.2
2018-04-12T14:29:44.337Z,22.2
2018-04-12T14:30:34.759Z,22.2
2018-04-12T14:31:24.848Z,22.2
2018-04-12T14:32:13.735Z,22.2
2018-04-12T14:33:04.941Z,22.3
2018-04-12T14:33:54.438Z,22.2
2018-04-12T14:34:45.084Z,22.2
2018-04-12T14:35:34.615Z,22.2
2018-04-12T14:36:25.752Z,22.2
2018-04-12T14:37:14.715Z,22.2
2018-04-12T14:38:03.381Z,22.3
2018-04-12T14:38:54.278Z,22.3
2018-04-12T14:39:44.344Z,22.3
2018-04-12T14:40:34.139Z,22.2
2018-04-12T14:41:24.758Z,22.3
2018-04-12T14:42:15.115Z,22.2
2018-04-12T14:43:04.297Z,22.3
2018-04-12T14:43:54.037Z,22.3
2018-04-12T14:44:44.478Z,22.2
2018-04-12T14:45:34.773Z,22.3
2018-04-12T14:46:24.965Z,22.3
2018-04-12T14:47:16.110Z,22.3
2018-04-12T14:48:04.683Z,22.3
2018-04-12T14:48:54.732Z,22.3
2018-04-12T14:49:45.728Z,22.3
2018-04-12T14:50:35.718Z,22.3
2018-04-12T14:51:25.815Z,22.3
2018-04-12T14:52:15.897Z,22.3
2018-04-12T14:53:06.183Z,22.3
2018-04-12T14:53:55.387Z,22.3
2018-04-12T14:54:45.764Z,22.3
2018-04-12T14:55:35.832Z,22.3
2018-04-12T14:56:25.110Z,22.3
2018-04-12T14:57:16.318Z,22.3
2018-04-12T14:58:05.450Z,22.3
2018-04-12T14:58:55.562Z,22.3
2018-04-12T14:59:45.884Z,22.3
2018-04-12T15:00:37.213Z,22.3
2018-04-12T15:01:26.522Z,22.3
2018-04-12T15:02:16.890Z,22.3
2018-04-12T15:03:06.373Z,22.3
2018-04-12T15:03:56.222Z,22.3
2018-04-12T15:04:46.091Z,22.3
2018-04-12T15:05:36.870Z,22.3
2018-04-12T15:06:27.360Z,22.3
2018-04-12T15:07:16.717Z,22.3
2018-04-12T15:08:07.687Z,22.3
2018-04-12T15:08:56.880Z,22.3
2018-04-12T15:09:46.390Z,22.3
2018-04-12T15:10:37.574Z,22.3
2018-04-12T15:11:26.530Z,22.3
2018-04-12T15:12:16.432Z,22.3
2018-04-12T15:13:08.435Z,22.3
2018-04-12T15:13:56.978Z,22.3
2018-04-12T15:14:46.448Z,22.3
2018-04-12T15:15:36.512Z,22.3
2018-04-12T15:16:26.992Z,22.3
2018-04-12T15:17:17.520Z,22.3
2018-04-12T15:18:07.055Z,22.3
2018-04-12T15:18:57.497Z,22.3
2018-04-12T15:19:47.664Z,22.3
2018-04-12T15:20:37.488Z,22.3
2018-04-12T15:21:27.847Z,22.3
2018-04-12T15:22:16.958Z,22.3
2018-04-12T15:23:08.836Z,22.3
2018-04-12T15:23:57.716Z,22.3
2018-04-12T15:24:48.396Z,22.3
2018-04-12T15:25:38.432Z,22.3
2018-04-12T15:26:28.283Z,22.3
2018-04-12T15:27:18.081Z,22.3
2018-04-12T15:28:08.626Z,22.3
2018-04-12T15:28:57.592Z,22.3
2018-04-12T15:29:47.893Z,22.3
2018-04-12T15:30:38.485Z,22.3
2018-04-12T15:31:27.993Z,22.3
2018-04-12T15:32:19.801Z,22.3
2018-04-12T15:33:09.579Z,22.3
2018-04-12T15:33:59.353Z,22.3
2018-04-12T15:34:49.107Z,22.3
2018-04-12T15:35:38.856Z,22.3
2018-04-12T15:36:28.370Z,22.3
2018-04-12T15:37:18.521Z,22.3
2018-04-12T15:38:09.078Z,22.3
2018-04-12T15:38:59.790Z,22.3
2018-04-12T15:39:49.314Z,22.3
2018-04-12T15:40:40.130Z,22.3
2018-04-12T15:41:29.902Z,22.3
2018-04-12T15:42:19.384Z,22.3
2018-04-12T15:43:09.745Z,22.3
2018-04-12T15:43:59.255Z,22.3
2018-04-12T15:44:49.295Z,22.3
2018-04-12T15:45:40.836Z,22.3
2018-04-12T15:46:29.679Z,22.3
2018-04-12T15:47:19.750Z,22.3
2018-04-12T15:48:10.385Z,22.3
2018-04-12T15:48:59.834Z,22.3
2018-04-12T15:49:50.775Z,22.3
2018-04-12T15:50:40.336Z,22.3
2018-04-12T15:51:29.818Z,22.3
2018-04-12T15:52:19.964Z,22.3
2018-04-12T15:53:09.476Z,22.3
2018-04-12T15:54:00.602Z,22.3
2018-04-12T15:54:50.613Z,22.3
2018-04-12T15:55:39.999Z,22.3
2018-04-12T15:56:29.909Z,22.3
2018-04-12T15:57:20.537Z,22.3
2018-04-12T15:58:10.931Z,22.3
2018-04-12T15:58:59.814Z,22.3
2018-04-12T15:59:50.986Z,22.3
2018-04-12T16:00:40.899Z,22.3
2018-04-12T16:01:31.086Z,22.3
2018-04-12T16:02:21.193Z,22.3
2018-04-12T16:03:11.632Z,22.3
2018-04-12T16:04:01.316Z,22.3
2018-04-12T16:04:51.046Z,22.3
2018-04-12T16:05:41.459Z,22.3
2018-04-12T16:06:31.521Z,22.3
2018-04-12T16:07:21.634Z,22.3
2018-04-12T16:08:10.888Z,22.3
2018-04-12T16:09:01.959Z,22.3
2018-04-12T16:09:51.481Z,22.3
2018-04-12T16:10:41.307Z,22.3
2018-04-12T16:11:32.460Z,22.3
2018-04-12T16:12:21.953Z,22.3
2018-04-12T16:13:12.577Z,22.3
2018-04-12T16:14:02.519Z,22.3
2018-04-12T16:14:52.232Z,22.3
2018-04-12T16:15:41.673Z,22.3
2018-04-12T16:16:31.980Z,22.3
2018-04-12T16:17:21.520Z,22.3
2018-04-12T16:18:12.430Z,22.3
2018-04-12T16:19:02.731Z,22.3
2018-04-12T16:19:52.852Z,22.3
2018-04-12T16:20:42.356Z,22.4
2018-04-12T16:21:32.750Z,22.3
2018-04-12T16:22:22.425Z,22.3
2018-04-12T16:23:12.810Z,22.3
2018-04-12T16:24:02.425Z,22.3
2018-04-12T16:24:52.903Z,22.3
2018-04-12T16:25:43.250Z,22.3
2018-04-12T16:26:32.795Z,22.3
2018-04-12T16:27:22.566Z,22.3
2018-04-12T16:28:13.191Z,22.3
2018-04-12T16:29:02.746Z,22.3
2018-04-12T16:29:53.601Z,22.3
2018-04-12T16:30:43.103Z,22.3
2018-04-12T16:31:32.886Z,22.3
2018-04-12T16:32:23.247Z,22.3
2018-04-12T16:33:13.840Z,22.3
2018-04-12T16:34:03.348Z,22.3
2018-04-12T16:34:53.713Z,22.3
2018-04-12T16:35:44.065Z,22.3
2018-04-12T16:36:33.858Z,22.3
2018-04-12T16:37:23.848Z,22.3
2018-04-12T16:38:13.645Z,22.3
2018-04-12T16:39:04.739Z,22.3
2018-04-12T16:39:54.303Z,22.3
2018-04-12T16:40:43.639Z,22.3
2018-04-12T16:41:33.408Z,22.3
2018-04-12T16:42:23.671Z,22.3
2018-04-12T16:43:14.019Z,22.3
2018-04-12T16:44:04.447Z,22.3
2018-04-12T16:44:53.859Z,22.3
2018-04-12T16:45:44.239Z,22.3
2018-04-12T16:46:34.552Z,22.3
2018-04-12T16:47:23.531Z,22.3
2018-04-12T16:48:13.892Z,22.3
2018-04-12T16:49:04.752Z,22.3